sensor_id;sensor_type;location;lat;lon;timestamp;P1;durP1;ratioP1;P2;durP2;ratioP2
846;SDS011;410;48.954;9.474;2022-09-17T00:00:53;3.17;;;1.80;;
846;SDS011;410;48.954;9.474;2022-09-17T00:02:56;3.80;;;1.77;;
846;SDS011;410;48.954;9.474;2022-09-17T00:05:00;3.30;;;2.00;;
846;SDS011;410;48.954;9.474;2022-09-17T00:07:03;3.03;;;2.03;;
846;SDS011;410;48.954;9.474;2022-09-17T00:09:07;2.53;;;1.30;;
846;SDS011;410;48.954;9.474;2022-09-17T00:11:11;5.93;;;1.73;;
846;SDS011;410;48.954;9.474;2022-09-17T00:13:15;2.40;;;1.30;;
846;SDS011;410;48.954;9.474;2022-09-17T00:15:18;2.67;;;1.43;;
846;SDS011;410;48.954;9.474;2022-09-17T00:17:21;2.23;;;1.60;;
846;SDS011;410;48.954;9.474;2022-09-17T00:19:24;2.83;;;1.80;;
846;SDS011;410;48.954;9.474;2022-09-17T00:21:29;2.47;;;1.87;;
846;SDS011;410;48.954;9.474;2022-09-17T00:23:32;2.70;;;1.87;;
846;SDS011;410;48.954;9.474;2022-09-17T00:25:36;2.83;;;2.30;;
846;SDS011;410;48.954;9.474;2022-09-17T00:27:39;2.87;;;2.47;;
846;SDS011;410;48.954;9.474;2022-09-17T00:29:42;6.80;;;2.37;;
846;SDS011;410;48.954;9.474;2022-09-17T00:31:46;2.97;;;1.90;;
846;SDS011;410;48.954;9.474;2022-09-17T00:33:49;4.00;;;1.80;;
846;SDS011;410;48.954;9.474;2022-09-17T00:35:56;3.60;;;1.80;;
846;SDS011;410;48.954;9.474;2022-09-17T00:38:01;5.10;;;2.10;;
846;SDS011;410;48.954;9.474;2022-09-17T00:40:04;3.00;;;2.00;;
846;SDS011;410;48.954;9.474;2022-09-17T00:42:08;2.80;;;2.07;;
846;SDS011;410;48.954;9.474;2022-09-17T00:46:43;3.63;;;2.20;;
846;SDS011;410;48.954;9.474;2022-09-17T00:48:46;6.80;;;2.10;;
846;SDS011;410;48.954;9.474;2022-09-17T00:50:49;3.10;;;1.80;;
846;SDS011;410;48.954;9.474;2022-09-17T00:52:56;3.60;;;2.00;;
846;SDS011;410;48.954;9.474;2022-09-17T00:55:05;3.50;;;2.03;;
846;SDS011;410;48.954;9.474;2022-09-17T00:57:11;4.40;;;2.20;;
846;SDS011;410;48.954;9.474;2022-09-17T00:59:14;2.27;;;1.73;;
846;SDS011;410;48.954;9.474;2022-09-17T01:01:17;3.47;;;1.90;;
846;SDS011;410;48.954;9.474;2022-09-17T01:03:20;5.10;;;1.70;;
846;SDS011;410;48.954;9.474;2022-09-17T01:05:25;2.80;;;2.00;;
846;SDS011;410;48.954;9.474;2022-09-17T01:07:52;3.13;;;2.00;;
846;SDS011;410;48.954;9.474;2022-09-17T01:10:11;3.37;;;1.90;;
846;SDS011;410;48.954;9.474;2022-09-17T01:12:30;3.70;;;2.20;;
846;SDS011;410;48.954;9.474;2022-09-17T01:14:44;2.37;;;1.90;;
846;SDS011;410;48.954;9.474;2022-09-17T01:16:54;3.37;;;1.80;;
846;SDS011;410;48.954;9.474;2022-09-17T01:19:04;2.73;;;1.73;;
846;SDS011;410;48.954;9.474;2022-09-17T01:23:57;3.30;;;2.10;;
846;SDS011;410;48.954;9.474;2022-09-17T01:26:15;3.33;;;1.93;;
846;SDS011;410;48.954;9.474;2022-09-17T01:28:37;2.93;;;1.83;;
846;SDS011;410;48.954;9.474;2022-09-17T01:31:01;1.90;;;1.60;;
846;SDS011;410;48.954;9.474;2022-09-17T01:33:07;3.50;;;2.17;;
846;SDS011;410;48.954;9.474;2022-09-17T01:35:16;5.00;;;1.90;;
846;SDS011;410;48.954;9.474;2022-09-17T01:37:22;2.63;;;1.50;;
846;SDS011;410;48.954;9.474;2022-09-17T01:39:33;3.10;;;1.70;;
846;SDS011;410;48.954;9.474;2022-09-17T01:41:44;5.93;;;2.30;;
846;SDS011;410;48.954;9.474;2022-09-17T01:43:54;2.70;;;2.10;;
846;SDS011;410;48.954;9.474;2022-09-17T01:46:02;2.93;;;1.70;;
846;SDS011;410;48.954;9.474;2022-09-17T01:48:12;2.40;;;1.57;;
846;SDS011;410;48.954;9.474;2022-09-17T01:50:19;4.57;;;1.70;;
846;SDS011;410;48.954;9.474;2022-09-17T01:52:26;4.07;;;1.50;;
846;SDS011;410;48.954;9.474;2022-09-17T01:54:30;3.77;;;1.77;;
846;SDS011;410;48.954;9.474;2022-09-17T01:56:41;3.10;;;1.73;;
846;SDS011;410;48.954;9.474;2022-09-17T01:58:47;2.57;;;1.60;;
846;SDS011;410;48.954;9.474;2022-09-17T02:00:54;2.90;;;1.73;;
846;SDS011;410;48.954;9.474;2022-09-17T02:03:03;2.20;;;1.70;;
846;SDS011;410;48.954;9.474;2022-09-17T02:05:09;3.00;;;1.70;;
846;SDS011;410;48.954;9.474;2022-09-17T02:07:17;3.23;;;1.93;;
846;SDS011;410;48.954;9.474;2022-09-17T02:09:22;5.10;;;1.70;;
846;SDS011;410;48.954;9.474;2022-09-17T02:11:27;2.70;;;1.80;;
846;SDS011;410;48.954;9.474;2022-09-17T02:13:30;1.90;;;1.60;;
846;SDS011;410;48.954;9.474;2022-09-17T02:15:35;2.83;;;1.83;;
846;SDS011;410;48.954;9.474;2022-09-17T02:17:43;2.30;;;1.50;;
846;SDS011;410;48.954;9.474;2022-09-17T02:19:49;1.93;;;1.70;;
846;SDS011;410;48.954;9.474;2022-09-17T02:21:55;2.37;;;1.90;;
846;SDS011;410;48.954;9.474;2022-09-17T02:24:05;3.30;;;1.50;;
846;SDS011;410;48.954;9.474;2022-09-17T02:26:11;3.60;;;1.70;;
846;SDS011;410;48.954;9.474;2022-09-17T02:28:16;4.83;;;1.97;;
846;SDS011;410;48.954;9.474;2022-09-17T02:30:23;3.23;;;1.60;;
846;SDS011;410;48.954;9.474;2022-09-17T02:32:26;3.23;;;1.97;;
846;SDS011;410;48.954;9.474;2022-09-17T02:34:30;4.00;;;1.90;;
846;SDS011;410;48.954;9.474;2022-09-17T02:36:34;2.63;;;1.60;;
846;SDS011;410;48.954;9.474;2022-09-17T02:38:39;2.67;;;1.80;;
846;SDS011;410;48.954;9.474;2022-09-17T02:40:43;3.00;;;1.50;;
846;SDS011;410;48.954;9.474;2022-09-17T02:42:53;3.07;;;1.80;;
846;SDS011;410;48.954;9.474;2022-09-17T02:45:04;3.43;;;1.83;;
846;SDS011;410;48.954;9.474;2022-09-17T02:47:31;5.20;;;1.93;;
846;SDS011;410;48.954;9.474;2022-09-17T02:49:42;2.57;;;1.80;;
846;SDS011;410;48.954;9.474;2022-09-17T02:51:58;3.10;;;1.80;;
846;SDS011;410;48.954;9.474;2022-09-17T02:54:06;3.93;;;1.83;;
846;SDS011;410;48.954;9.474;2022-09-17T02:56:18;2.10;;;1.50;;
846;SDS011;410;48.954;9.474;2022-09-17T02:58:27;2.20;;;1.67;;
846;SDS011;410;48.954;9.474;2022-09-17T03:00:32;5.20;;;1.90;;
846;SDS011;410;48.954;9.474;2022-09-17T03:02:37;2.03;;;1.63;;
846;SDS011;410;48.954;9.474;2022-09-17T03:04:44;5.07;;;1.90;;
846;SDS011;410;48.954;9.474;2022-09-17T03:06:50;3.40;;;1.90;;
846;SDS011;410;48.954;9.474;2022-09-17T03:08:55;3.20;;;1.80;;
846;SDS011;410;48.954;9.474;2022-09-17T03:10:58;2.10;;;1.70;;
846;SDS011;410;48.954;9.474;2022-09-17T03:13:01;3.90;;;2.13;;
846;SDS011;410;48.954;9.474;2022-09-17T03:15:04;4.20;;;1.80;;
846;SDS011;410;48.954;9.474;2022-09-17T03:17:08;3.67;;;1.77;;
846;SDS011;410;48.954;9.474;2022-09-17T03:19:11;2.80;;;1.80;;
846;SDS011;410;48.954;9.474;2022-09-17T03:21:14;2.60;;;1.90;;
846;SDS011;410;48.954;9.474;2022-09-17T03:23:17;5.53;;;2.07;;
846;SDS011;410;48.954;9.474;2022-09-17T03:25:21;3.60;;;1.87;;
846;SDS011;410;48.954;9.474;2022-09-17T03:27:24;3.40;;;2.20;;
846;SDS011;410;48.954;9.474;2022-09-17T03:29:27;4.10;;;1.97;;
846;SDS011;410;48.954;9.474;2022-09-17T03:31:30;3.70;;;1.80;;
846;SDS011;410;48.954;9.474;2022-09-17T03:33:33;6.07;;;2.50;;
846;SDS011;410;48.954;9.474;2022-09-17T03:35:36;2.30;;;2.00;;
846;SDS011;410;48.954;9.474;2022-09-17T03:37:39;3.50;;;2.50;;
846;SDS011;410;48.954;9.474;2022-09-17T03:39:43;3.20;;;2.40;;
846;SDS011;410;48.954;9.474;2022-09-17T03:41:47;2.37;;;2.00;;
846;SDS011;410;48.954;9.474;2022-09-17T03:43:51;3.40;;;1.83;;
846;SDS011;410;48.954;9.474;2022-09-17T03:45:54;3.60;;;1.70;;
846;SDS011;410;48.954;9.474;2022-09-17T03:47:57;7.40;;;2.20;;
846;SDS011;410;48.954;9.474;2022-09-17T03:50:00;6.37;;;2.23;;
846;SDS011;410;48.954;9.474;2022-09-17T03:52:03;3.17;;;1.70;;
846;SDS011;410;48.954;9.474;2022-09-17T03:54:06;2.90;;;2.13;;
846;SDS011;410;48.954;9.474;2022-09-17T03:56:09;4.37;;;2.00;;
846;SDS011;410;48.954;9.474;2022-09-17T03:58:14;3.30;;;1.90;;
846;SDS011;410;48.954;9.474;2022-09-17T04:00:17;3.90;;;2.10;;
846;SDS011;410;48.954;9.474;2022-09-17T04:02:20;5.77;;;2.10;;
846;SDS011;410;48.954;9.474;2022-09-17T04:04:24;3.63;;;2.30;;
846;SDS011;410;48.954;9.474;2022-09-17T04:06:27;6.27;;;2.60;;
846;SDS011;410;48.954;9.474;2022-09-17T04:08:30;2.87;;;2.10;;
846;SDS011;410;48.954;9.474;2022-09-17T04:10:33;3.70;;;2.30;;
846;SDS011;410;48.954;9.474;2022-09-17T04:12:36;3.67;;;2.10;;
846;SDS011;410;48.954;9.474;2022-09-17T04:14:40;3.97;;;2.27;;
846;SDS011;410;48.954;9.474;2022-09-17T04:16:43;4.33;;;2.67;;
846;SDS011;410;48.954;9.474;2022-09-17T04:18:46;4.57;;;2.10;;
846;SDS011;410;48.954;9.474;2022-09-17T04:20:49;5.13;;;2.60;;
846;SDS011;410;48.954;9.474;2022-09-17T04:22:52;4.33;;;3.03;;
846;SDS011;410;48.954;9.474;2022-09-17T04:24:55;5.47;;;2.63;;
846;SDS011;410;48.954;9.474;2022-09-17T04:26:58;10.03;;;4.93;;
846;SDS011;410;48.954;9.474;2022-09-17T04:29:01;4.00;;;2.40;;
846;SDS011;410;48.954;9.474;2022-09-17T04:31:06;4.87;;;2.60;;
846;SDS011;410;48.954;9.474;2022-09-17T04:33:09;4.17;;;2.60;;
846;SDS011;410;48.954;9.474;2022-09-17T04:35:12;4.10;;;2.37;;
846;SDS011;410;48.954;9.474;2022-09-17T04:37:15;4.10;;;2.77;;
846;SDS011;410;48.954;9.474;2022-09-17T04:39:18;4.43;;;2.43;;
846;SDS011;410;48.954;9.474;2022-09-17T04:41:21;4.53;;;2.50;;
846;SDS011;410;48.954;9.474;2022-09-17T04:43:24;5.43;;;2.53;;
846;SDS011;410;48.954;9.474;2022-09-17T04:45:27;4.23;;;2.90;;
846;SDS011;410;48.954;9.474;2022-09-17T04:47:32;3.37;;;2.10;;
846;SDS011;410;48.954;9.474;2022-09-17T04:49:35;5.70;;;2.50;;
846;SDS011;410;48.954;9.474;2022-09-17T04:51:38;5.10;;;2.17;;
846;SDS011;410;48.954;9.474;2022-09-17T04:53:41;7.23;;;2.67;;
846;SDS011;410;48.954;9.474;2022-09-17T04:55:44;2.90;;;2.37;;
846;SDS011;410;48.954;9.474;2022-09-17T04:57:47;3.77;;;2.60;;
846;SDS011;410;48.954;9.474;2022-09-17T04:59:51;5.20;;;2.47;;
846;SDS011;410;48.954;9.474;2022-09-17T05:01:54;4.10;;;2.40;;
846;SDS011;410;48.954;9.474;2022-09-17T05:03:58;2.90;;;2.40;;
846;SDS011;410;48.954;9.474;2022-09-17T05:06:01;4.23;;;2.50;;
846;SDS011;410;48.954;9.474;2022-09-17T05:08:04;4.53;;;2.60;;
846;SDS011;410;48.954;9.474;2022-09-17T05:10:09;4.87;;;2.90;;
846;SDS011;410;48.954;9.474;2022-09-17T05:12:13;5.00;;;3.13;;
846;SDS011;410;48.954;9.474;2022-09-17T05:14:16;4.40;;;3.07;;
846;SDS011;410;48.954;9.474;2022-09-17T05:16:19;4.23;;;2.80;;
846;SDS011;410;48.954;9.474;2022-09-17T05:18:22;4.63;;;3.10;;
846;SDS011;410;48.954;9.474;2022-09-17T05:20:27;4.63;;;3.30;;
846;SDS011;410;48.954;9.474;2022-09-17T05:22:30;5.43;;;3.20;;
846;SDS011;410;48.954;9.474;2022-09-17T05:24:33;8.13;;;3.37;;
846;SDS011;410;48.954;9.474;2022-09-17T05:26:39;8.87;;;3.47;;
846;SDS011;410;48.954;9.474;2022-09-17T05:28:42;5.53;;;3.63;;
846;SDS011;410;48.954;9.474;2022-09-17T05:30:45;6.57;;;3.23;;
846;SDS011;410;48.954;9.474;2022-09-17T05:32:52;5.43;;;4.30;;
846;SDS011;410;48.954;9.474;2022-09-17T05:35:00;6.90;;;3.40;;
846;SDS011;410;48.954;9.474;2022-09-17T05:37:09;7.10;;;3.40;;
846;SDS011;410;48.954;9.474;2022-09-17T05:39:12;7.10;;;3.70;;
846;SDS011;410;48.954;9.474;2022-09-17T05:41:15;5.10;;;3.40;;
846;SDS011;410;48.954;9.474;2022-09-17T05:43:18;6.00;;;3.37;;
846;SDS011;410;48.954;9.474;2022-09-17T05:45:24;4.23;;;3.13;;
846;SDS011;410;48.954;9.474;2022-09-17T05:47:27;4.33;;;3.23;;
846;SDS011;410;48.954;9.474;2022-09-17T05:49:30;5.40;;;3.33;;
846;SDS011;410;48.954;9.474;2022-09-17T05:51:33;4.77;;;3.30;;
846;SDS011;410;48.954;9.474;2022-09-17T05:53:37;6.63;;;3.47;;
846;SDS011;410;48.954;9.474;2022-09-17T05:55:40;6.60;;;3.60;;
846;SDS011;410;48.954;9.474;2022-09-17T05:57:43;7.07;;;3.20;;
846;SDS011;410;48.954;9.474;2022-09-17T05:59:46;5.57;;;3.27;;
846;SDS011;410;48.954;9.474;2022-09-17T06:01:49;6.10;;;3.13;;
846;SDS011;410;48.954;9.474;2022-09-17T06:03:52;5.87;;;3.90;;
846;SDS011;410;48.954;9.474;2022-09-17T06:05:56;6.27;;;3.13;;
846;SDS011;410;48.954;9.474;2022-09-17T06:08:00;5.20;;;3.50;;
846;SDS011;410;48.954;9.474;2022-09-17T06:10:06;5.03;;;3.47;;
846;SDS011;410;48.954;9.474;2022-09-17T06:12:09;5.27;;;3.40;;
846;SDS011;410;48.954;9.474;2022-09-17T06:14:13;4.67;;;3.40;;
846;SDS011;410;48.954;9.474;2022-09-17T06:16:16;5.07;;;3.17;;
846;SDS011;410;48.954;9.474;2022-09-17T06:18:19;4.40;;;3.33;;
846;SDS011;410;48.954;9.474;2022-09-17T06:20:22;12.87;;;4.73;;
846;SDS011;410;48.954;9.474;2022-09-17T06:22:25;4.90;;;3.13;;
846;SDS011;410;48.954;9.474;2022-09-17T06:24:28;5.23;;;3.20;;
846;SDS011;410;48.954;9.474;2022-09-17T06:26:32;5.00;;;3.20;;
846;SDS011;410;48.954;9.474;2022-09-17T06:28:35;4.87;;;3.13;;
846;SDS011;410;48.954;9.474;2022-09-17T06:30:42;6.43;;;3.70;;
846;SDS011;410;48.954;9.474;2022-09-17T06:32:45;7.33;;;3.50;;
846;SDS011;410;48.954;9.474;2022-09-17T06:34:48;7.03;;;3.60;;
846;SDS011;410;48.954;9.474;2022-09-17T06:36:51;6.50;;;3.60;;
846;SDS011;410;48.954;9.474;2022-09-17T06:38:54;4.87;;;3.17;;
846;SDS011;410;48.954;9.474;2022-09-17T06:40:57;7.20;;;3.27;;
846;SDS011;410;48.954;9.474;2022-09-17T06:43:02;6.40;;;3.30;;
846;SDS011;410;48.954;9.474;2022-09-17T06:45:05;5.43;;;3.13;;
846;SDS011;410;48.954;9.474;2022-09-17T06:47:16;4.43;;;3.27;;
846;SDS011;410;48.954;9.474;2022-09-17T06:49:19;5.10;;;3.67;;
846;SDS011;410;48.954;9.474;2022-09-17T06:51:22;7.90;;;3.33;;
846;SDS011;410;48.954;9.474;2022-09-17T06:53:25;4.63;;;3.23;;
846;SDS011;410;48.954;9.474;2022-09-17T06:55:29;4.13;;;3.10;;
846;SDS011;410;48.954;9.474;2022-09-17T06:57:32;8.43;;;4.10;;
846;SDS011;410;48.954;9.474;2022-09-17T06:59:37;7.60;;;3.50;;
846;SDS011;410;48.954;9.474;2022-09-17T07:01:40;5.73;;;3.10;;
846;SDS011;410;48.954;9.474;2022-09-17T07:03:44;4.80;;;3.20;;
846;SDS011;410;48.954;9.474;2022-09-17T07:05:47;5.10;;;3.33;;
846;SDS011;410;48.954;9.474;2022-09-17T07:07:50;8.00;;;3.27;;
846;SDS011;410;48.954;9.474;2022-09-17T07:09:53;5.40;;;3.50;;
846;SDS011;410;48.954;9.474;2022-09-17T07:11:56;5.80;;;3.43;;
846;SDS011;410;48.954;9.474;2022-09-17T07:13:59;11.80;;;3.93;;
846;SDS011;410;48.954;9.474;2022-09-17T07:16:04;6.33;;;3.60;;
846;SDS011;410;48.954;9.474;2022-09-17T07:18:09;8.13;;;3.90;;
846;SDS011;410;48.954;9.474;2022-09-17T07:20:12;8.90;;;3.90;;
846;SDS011;410;48.954;9.474;2022-09-17T07:22:16;4.03;;;3.10;;
846;SDS011;410;48.954;9.474;2022-09-17T07:24:19;8.60;;;4.10;;
846;SDS011;410;48.954;9.474;2022-09-17T07:26:22;7.17;;;3.50;;
846;SDS011;410;48.954;9.474;2022-09-17T07:28:25;4.90;;;3.60;;
846;SDS011;410;48.954;9.474;2022-09-17T07:30:29;4.90;;;3.60;;
846;SDS011;410;48.954;9.474;2022-09-17T07:32:33;5.07;;;3.70;;
846;SDS011;410;48.954;9.474;2022-09-17T07:34:36;7.90;;;3.80;;
846;SDS011;410;48.954;9.474;2022-09-17T07:36:41;5.30;;;3.33;;
846;SDS011;410;48.954;9.474;2022-09-17T07:38:44;8.00;;;3.53;;
846;SDS011;410;48.954;9.474;2022-09-17T07:40:54;6.20;;;3.30;;
846;SDS011;410;48.954;9.474;2022-09-17T07:42:58;6.33;;;3.70;;
846;SDS011;410;48.954;9.474;2022-09-17T07:45:02;6.20;;;4.00;;
846;SDS011;410;48.954;9.474;2022-09-17T07:47:05;6.83;;;3.37;;
846;SDS011;410;48.954;9.474;2022-09-17T07:49:10;4.93;;;3.43;;
846;SDS011;410;48.954;9.474;2022-09-17T07:51:14;7.70;;;4.43;;
846;SDS011;410;48.954;9.474;2022-09-17T07:53:17;8.87;;;3.63;;
846;SDS011;410;48.954;9.474;2022-09-17T07:55:20;5.97;;;3.80;;
846;SDS011;410;48.954;9.474;2022-09-17T07:57:24;8.53;;;3.70;;
846;SDS011;410;48.954;9.474;2022-09-17T07:59:27;5.00;;;3.80;;
846;SDS011;410;48.954;9.474;2022-09-17T08:01:30;6.07;;;3.67;;
846;SDS011;410;48.954;9.474;2022-09-17T08:03:35;7.07;;;4.20;;
846;SDS011;410;48.954;9.474;2022-09-17T08:05:39;4.50;;;3.37;;
846;SDS011;410;48.954;9.474;2022-09-17T08:07:42;6.83;;;4.17;;
846;SDS011;410;48.954;9.474;2022-09-17T08:09:45;6.00;;;4.27;;
846;SDS011;410;48.954;9.474;2022-09-17T08:11:48;7.93;;;4.50;;
846;SDS011;410;48.954;9.474;2022-09-17T08:13:57;9.27;;;4.17;;
846;SDS011;410;48.954;9.474;2022-09-17T08:16:01;4.63;;;3.73;;
846;SDS011;410;48.954;9.474;2022-09-17T08:18:05;6.60;;;4.03;;
846;SDS011;410;48.954;9.474;2022-09-17T08:20:09;5.63;;;3.67;;
846;SDS011;410;48.954;9.474;2022-09-17T08:22:13;8.10;;;4.20;;
846;SDS011;410;48.954;9.474;2022-09-17T08:24:16;4.63;;;3.73;;
846;SDS011;410;48.954;9.474;2022-09-17T08:26:20;6.10;;;3.50;;
846;SDS011;410;48.954;9.474;2022-09-17T08:28:24;4.70;;;3.80;;
846;SDS011;410;48.954;9.474;2022-09-17T08:30:28;4.57;;;3.90;;
846;SDS011;410;48.954;9.474;2022-09-17T08:32:32;6.60;;;3.43;;
846;SDS011;410;48.954;9.474;2022-09-17T08:34:35;5.17;;;4.10;;
846;SDS011;410;48.954;9.474;2022-09-17T08:36:38;5.90;;;4.17;;
846;SDS011;410;48.954;9.474;2022-09-17T08:38:42;8.13;;;4.30;;
846;SDS011;410;48.954;9.474;2022-09-17T08:40:50;9.20;;;5.20;;
846;SDS011;410;48.954;9.474;2022-09-17T08:43:00;7.40;;;4.30;;
846;SDS011;410;48.954;9.474;2022-09-17T08:45:04;5.20;;;3.97;;
846;SDS011;410;48.954;9.474;2022-09-17T08:47:12;7.60;;;4.60;;
846;SDS011;410;48.954;9.474;2022-09-17T08:49:23;8.03;;;4.67;;
846;SDS011;410;48.954;9.474;2022-09-17T08:51:31;7.10;;;5.23;;
846;SDS011;410;48.954;9.474;2022-09-17T08:53:44;6.93;;;4.20;;
846;SDS011;410;48.954;9.474;2022-09-17T08:55:54;4.57;;;4.17;;
846;SDS011;410;48.954;9.474;2022-09-17T08:58:19;7.17;;;4.50;;
846;SDS011;410;48.954;9.474;2022-09-17T09:00:29;4.60;;;4.10;;
846;SDS011;410;48.954;9.474;2022-09-17T09:02:43;6.93;;;4.57;;
846;SDS011;410;48.954;9.474;2022-09-17T09:05:12;5.03;;;4.03;;
846;SDS011;410;48.954;9.474;2022-09-17T09:07:17;6.93;;;4.17;;
846;SDS011;410;48.954;9.474;2022-09-17T09:09:24;8.07;;;4.50;;
846;SDS011;410;48.954;9.474;2022-09-17T09:11:31;7.67;;;4.37;;
846;SDS011;410;48.954;9.474;2022-09-17T09:13:35;7.97;;;5.33;;
846;SDS011;410;48.954;9.474;2022-09-17T09:15:40;13.70;;;8.43;;
846;SDS011;410;48.954;9.474;2022-09-17T09:17:46;14.50;;;9.40;;
846;SDS011;410;48.954;9.474;2022-09-17T09:19:51;12.47;;;6.87;;
846;SDS011;410;48.954;9.474;2022-09-17T09:21:59;8.33;;;5.00;;
846;SDS011;410;48.954;9.474;2022-09-17T09:24:04;8.07;;;4.03;;
846;SDS011;410;48.954;9.474;2022-09-17T09:26:14;8.70;;;4.20;;
846;SDS011;410;48.954;9.474;2022-09-17T09:28:23;9.40;;;4.17;;
846;SDS011;410;48.954;9.474;2022-09-17T09:30:38;8.93;;;3.90;;
846;SDS011;410;48.954;9.474;2022-09-17T09:32:49;8.37;;;4.50;;
846;SDS011;410;48.954;9.474;2022-09-17T09:34:57;9.20;;;4.57;;
846;SDS011;410;48.954;9.474;2022-09-17T09:37:07;7.33;;;3.93;;
846;SDS011;410;48.954;9.474;2022-09-17T09:39:14;7.00;;;3.80;;
846;SDS011;410;48.954;9.474;2022-09-17T09:41:23;5.07;;;3.53;;
846;SDS011;410;48.954;9.474;2022-09-17T09:43:30;6.90;;;3.87;;
846;SDS011;410;48.954;9.474;2022-09-17T09:46:02;7.20;;;4.50;;
846;SDS011;410;48.954;9.474;2022-09-17T09:48:15;8.10;;;5.40;;
846;SDS011;410;48.954;9.474;2022-09-17T09:50:25;6.77;;;3.60;;
846;SDS011;410;48.954;9.474;2022-09-17T09:52:59;7.97;;;3.30;;
846;SDS011;410;48.954;9.474;2022-09-17T09:55:13;7.43;;;3.47;;
846;SDS011;410;48.954;9.474;2022-09-17T09:57:34;10.27;;;4.00;;
846;SDS011;410;48.954;9.474;2022-09-17T09:59:40;10.30;;;3.97;;
846;SDS011;410;48.954;9.474;2022-09-17T10:01:43;10.43;;;3.60;;
846;SDS011;410;48.954;9.474;2022-09-17T10:03:47;10.53;;;3.90;;
846;SDS011;410;48.954;9.474;2022-09-17T10:05:56;7.23;;;4.50;;
846;SDS011;410;48.954;9.474;2022-09-17T10:07:59;10.83;;;5.93;;
846;SDS011;410;48.954;9.474;2022-09-17T10:10:13;9.70;;;4.97;;
846;SDS011;410;48.954;9.474;2022-09-17T10:12:16;13.70;;;6.20;;
846;SDS011;410;48.954;9.474;2022-09-17T10:14:22;8.80;;;3.63;;
846;SDS011;410;48.954;9.474;2022-09-17T10:16:26;14.33;;;7.03;;
846;SDS011;410;48.954;9.474;2022-09-17T10:18:31;6.10;;;3.53;;
846;SDS011;410;48.954;9.474;2022-09-17T10:20:34;13.60;;;6.40;;
846;SDS011;410;48.954;9.474;2022-09-17T10:22:37;12.37;;;4.13;;
846;SDS011;410;48.954;9.474;2022-09-17T10:24:41;9.83;;;5.40;;
846;SDS011;410;48.954;9.474;2022-09-17T10:26:44;8.57;;;5.00;;
846;SDS011;410;48.954;9.474;2022-09-17T10:28:48;5.03;;;3.40;;
846;SDS011;410;48.954;9.474;2022-09-17T10:30:57;8.50;;;5.17;;
846;SDS011;410;48.954;9.474;2022-09-17T10:33:17;5.43;;;3.13;;
846;SDS011;410;48.954;9.474;2022-09-17T10:35:25;7.67;;;2.97;;
846;SDS011;410;48.954;9.474;2022-09-17T10:37:31;4.60;;;2.77;;
846;SDS011;410;48.954;9.474;2022-09-17T10:39:36;6.67;;;2.80;;
846;SDS011;410;48.954;9.474;2022-09-17T10:41:52;7.40;;;2.83;;
846;SDS011;410;48.954;9.474;2022-09-17T10:43:55;5.90;;;3.00;;
846;SDS011;410;48.954;9.474;2022-09-17T10:46:00;7.97;;;2.53;;
846;SDS011;410;48.954;9.474;2022-09-17T10:48:11;7.63;;;2.90;;
846;SDS011;410;48.954;9.474;2022-09-17T10:50:17;8.67;;;3.13;;
846;SDS011;410;48.954;9.474;2022-09-17T10:52:22;10.47;;;3.40;;
846;SDS011;410;48.954;9.474;2022-09-17T10:54:32;7.97;;;3.40;;
846;SDS011;410;48.954;9.474;2022-09-17T10:56:56;5.97;;;2.93;;
846;SDS011;410;48.954;9.474;2022-09-17T10:59:02;5.70;;;3.33;;
846;SDS011;410;48.954;9.474;2022-09-17T11:01:18;5.17;;;3.00;;
846;SDS011;410;48.954;9.474;2022-09-17T11:06:12;7.47;;;3.30;;
846;SDS011;410;48.954;9.474;2022-09-17T11:08:32;6.17;;;3.40;;
846;SDS011;410;48.954;9.474;2022-09-17T11:10:40;6.47;;;3.77;;
846;SDS011;410;48.954;9.474;2022-09-17T11:13:01;8.77;;;4.93;;
846;SDS011;410;48.954;9.474;2022-09-17T11:15:13;6.83;;;3.30;;
846;SDS011;410;48.954;9.474;2022-09-17T11:17:41;10.03;;;4.73;;
846;SDS011;410;48.954;9.474;2022-09-17T11:19:52;8.80;;;4.60;;
846;SDS011;410;48.954;9.474;2022-09-17T11:22:01;8.80;;;3.63;;
846;SDS011;410;48.954;9.474;2022-09-17T11:26:50;4.13;;;1.70;;
846;SDS011;410;48.954;9.474;2022-09-17T11:28:59;3.93;;;1.40;;
846;SDS011;410;48.954;9.474;2022-09-17T11:31:13;3.00;;;1.27;;
846;SDS011;410;48.954;9.474;2022-09-17T11:33:34;1.83;;;1.10;;
846;SDS011;410;48.954;9.474;2022-09-17T11:35:47;3.17;;;1.17;;
846;SDS011;410;48.954;9.474;2022-09-17T11:37:53;3.07;;;1.40;;
846;SDS011;410;48.954;9.474;2022-09-17T11:40:02;4.13;;;1.50;;
846;SDS011;410;48.954;9.474;2022-09-17T11:42:09;2.30;;;1.20;;
846;SDS011;410;48.954;9.474;2022-09-17T11:44:19;8.80;;;4.20;;
846;SDS011;410;48.954;9.474;2022-09-17T11:46:26;2.10;;;1.30;;
846;SDS011;410;48.954;9.474;2022-09-17T11:48:35;8.43;;;3.50;;
846;SDS011;410;48.954;9.474;2022-09-17T11:50:41;18.70;;;7.23;;
846;SDS011;410;48.954;9.474;2022-09-17T11:52:49;17.90;;;9.73;;
846;SDS011;410;48.954;9.474;2022-09-17T11:55:04;14.47;;;7.90;;
846;SDS011;410;48.954;9.474;2022-09-17T11:57:12;19.27;;;11.07;;
846;SDS011;410;48.954;9.474;2022-09-17T11:59:17;21.30;;;12.57;;
846;SDS011;410;48.954;9.474;2022-09-17T12:01:24;6.93;;;3.17;;
846;SDS011;410;48.954;9.474;2022-09-17T12:03:29;3.10;;;2.17;;
846;SDS011;410;48.954;9.474;2022-09-17T12:05:38;4.30;;;2.47;;
846;SDS011;410;48.954;9.474;2022-09-17T12:07:44;4.77;;;2.50;;
846;SDS011;410;48.954;9.474;2022-09-17T12:09:52;4.03;;;2.07;;
846;SDS011;410;48.954;9.474;2022-09-17T12:11:59;3.00;;;2.17;;
846;SDS011;410;48.954;9.474;2022-09-17T12:14:08;3.77;;;1.70;;
846;SDS011;410;48.954;9.474;2022-09-17T12:16:18;6.00;;;2.10;;
846;SDS011;410;48.954;9.474;2022-09-17T12:18:27;4.10;;;2.13;;
846;SDS011;410;48.954;9.474;2022-09-17T12:20:48;3.47;;;1.83;;
846;SDS011;410;48.954;9.474;2022-09-17T12:22:53;3.37;;;1.87;;
846;SDS011;410;48.954;9.474;2022-09-17T12:24:58;4.60;;;2.33;;
846;SDS011;410;48.954;9.474;2022-09-17T12:27:05;5.17;;;2.50;;
846;SDS011;410;48.954;9.474;2022-09-17T12:29:15;5.00;;;2.23;;
846;SDS011;410;48.954;9.474;2022-09-17T12:31:27;5.80;;;2.10;;
846;SDS011;410;48.954;9.474;2022-09-17T12:33:35;3.73;;;2.10;;
846;SDS011;410;48.954;9.474;2022-09-17T12:35:45;3.03;;;2.33;;
846;SDS011;410;48.954;9.474;2022-09-17T12:38:10;3.80;;;1.80;;
846;SDS011;410;48.954;9.474;2022-09-17T12:40:24;2.57;;;1.50;;
846;SDS011;410;48.954;9.474;2022-09-17T12:42:34;3.03;;;1.77;;
846;SDS011;410;48.954;9.474;2022-09-17T12:44:54;5.73;;;2.20;;
846;SDS011;410;48.954;9.474;2022-09-17T12:47:14;3.63;;;1.90;;
846;SDS011;410;48.954;9.474;2022-09-17T12:49:30;2.40;;;1.47;;
846;SDS011;410;48.954;9.474;2022-09-17T12:51:50;5.97;;;2.67;;
846;SDS011;410;48.954;9.474;2022-09-17T12:53:58;7.50;;;3.83;;
846;SDS011;410;48.954;9.474;2022-09-17T12:56:07;9.00;;;5.23;;
846;SDS011;410;48.954;9.474;2022-09-17T12:58:21;5.43;;;2.70;;
846;SDS011;410;48.954;9.474;2022-09-17T13:00:33;3.40;;;2.50;;
846;SDS011;410;48.954;9.474;2022-09-17T13:02:40;7.30;;;4.30;;
846;SDS011;410;48.954;9.474;2022-09-17T13:04:50;10.23;;;4.10;;
846;SDS011;410;48.954;9.474;2022-09-17T13:07:17;3.60;;;3.07;;
846;SDS011;410;48.954;9.474;2022-09-17T13:09:41;8.30;;;4.90;;
846;SDS011;410;48.954;9.474;2022-09-17T13:14:14;10.73;;;4.10;;
846;SDS011;410;48.954;9.474;2022-09-17T13:16:20;7.97;;;3.30;;
846;SDS011;410;48.954;9.474;2022-09-17T13:18:30;6.23;;;4.33;;
846;SDS011;410;48.954;9.474;2022-09-17T13:20:37;11.50;;;4.70;;
846;SDS011;410;48.954;9.474;2022-09-17T13:22:47;7.30;;;3.00;;
846;SDS011;410;48.954;9.474;2022-09-17T13:25:00;6.40;;;3.17;;
846;SDS011;410;48.954;9.474;2022-09-17T13:27:05;8.60;;;4.40;;
846;SDS011;410;48.954;9.474;2022-09-17T13:31:59;6.40;;;3.80;;
846;SDS011;410;48.954;9.474;2022-09-17T13:34:02;5.87;;;3.00;;
846;SDS011;410;48.954;9.474;2022-09-17T13:36:05;3.03;;;2.30;;
846;SDS011;410;48.954;9.474;2022-09-17T13:38:42;3.00;;;2.07;;
846;SDS011;410;48.954;9.474;2022-09-17T13:40:45;4.70;;;2.37;;
846;SDS011;410;48.954;9.474;2022-09-17T13:42:49;14.00;;;6.63;;
846;SDS011;410;48.954;9.474;2022-09-17T13:45:01;6.53;;;2.70;;
846;SDS011;410;48.954;9.474;2022-09-17T13:47:18;5.10;;;3.10;;
846;SDS011;410;48.954;9.474;2022-09-17T13:49:24;7.17;;;4.40;;